sensor_id;sensor_type;location;lat;lon;timestamp;P1;durP1;ratioP1;P2;durP2;ratioP2
46116;SDS011;32591;48.102;11.772;2024-02-26T00:02:28;5.43;;;2.85;;
46116;SDS011;32591;48.102;11.772;2024-02-26T00:04:56;7.45;;;3.28;;
46116;SDS011;32591;48.102;11.772;2024-02-26T00:07:24;4.97;;;3.03;;
46116;SDS011;32591;48.102;11.772;2024-02-26T00:09:53;6.35;;;3.10;;
46116;SDS011;32591;48.102;11.772;2024-02-26T00:12:21;7.38;;;3.30;;
46116;SDS011;32591;48.102;11.772;2024-02-26T00:14:50;4.47;;;3.00;;
46116;SDS011;32591;48.102;11.772;2024-02-26T00:17:19;5.97;;;3.13;;
46116;SDS011;32591;48.102;11.772;2024-02-26T00:19:47;6.30;;;3.38;;
46116;SDS011;32591;48.102;11.772;2024-02-26T00:22:15;8.05;;;3.80;;
46116;SDS011;32591;48.102;11.772;2024-02-26T00:24:43;5.60;;;3.25;;
46116;SDS011;32591;48.102;11.772;2024-02-26T00:27:13;4.50;;;2.63;;
46116;SDS011;32591;48.102;11.772;2024-02-26T00:29:41;5.53;;;2.88;;
46116;SDS011;32591;48.102;11.772;2024-02-26T00:32:09;4.80;;;2.70;;
46116;SDS011;32591;48.102;11.772;2024-02-26T00:34:37;3.88;;;2.20;;
46116;SDS011;32591;48.102;11.772;2024-02-26T00:37:05;3.70;;;2.50;;
46116;SDS011;32591;48.102;11.772;2024-02-26T00:39:35;5.88;;;2.60;;
46116;SDS011;32591;48.102;11.772;2024-02-26T00:42:03;3.95;;;2.30;;
46116;SDS011;32591;48.102;11.772;2024-02-26T00:44:33;5.65;;;2.55;;
46116;SDS011;32591;48.102;11.772;2024-02-26T00:47:01;4.07;;;2.47;;
46116;SDS011;32591;48.102;11.772;2024-02-26T00:49:30;3.35;;;2.35;;
46116;SDS011;32591;48.102;11.772;2024-02-26T00:51:58;5.10;;;2.28;;
46116;SDS011;32591;48.102;11.772;2024-02-26T00:54:26;4.95;;;2.53;;
46116;SDS011;32591;48.102;11.772;2024-02-26T00:56:54;4.03;;;2.17;;
46116;SDS011;32591;48.102;11.772;2024-02-26T00:59:22;3.80;;;2.30;;
46116;SDS011;32591;48.102;11.772;2024-02-26T01:01:52;5.22;;;1.92;;
46116;SDS011;32591;48.102;11.772;2024-02-26T01:04:20;4.15;;;2.28;;
46116;SDS011;32591;48.102;11.772;2024-02-26T01:06:49;3.10;;;2.30;;
46116;SDS011;32591;48.102;11.772;2024-02-26T01:09:17;6.45;;;2.38;;
46116;SDS011;32591;48.102;11.772;2024-02-26T01:11:45;3.78;;;2.63;;
46116;SDS011;32591;48.102;11.772;2024-02-26T01:14:14;3.47;;;2.50;;
46116;SDS011;32591;48.102;11.772;2024-02-26T01:16:42;3.92;;;2.53;;
46116;SDS011;32591;48.102;11.772;2024-02-26T01:19:11;4.28;;;2.10;;
46116;SDS011;32591;48.102;11.772;2024-02-26T01:21:40;3.45;;;2.22;;
46116;SDS011;32591;48.102;11.772;2024-02-26T01:24:08;3.55;;;2.15;;
46116;SDS011;32591;48.102;11.772;2024-02-26T01:26:36;4.30;;;2.53;;
46116;SDS011;32591;48.102;11.772;2024-02-26T01:29:04;3.70;;;2.15;;
46116;SDS011;32591;48.102;11.772;2024-02-26T01:31:31;3.20;;;2.00;;
46116;SDS011;32591;48.102;11.772;2024-02-26T01:34:00;3.67;;;1.80;;
46116;SDS011;32591;48.102;11.772;2024-02-26T01:36:30;4.32;;;2.30;;
46116;SDS011;32591;48.102;11.772;2024-02-26T01:38:58;3.78;;;2.35;;
46116;SDS011;32591;48.102;11.772;2024-02-26T01:41:26;3.63;;;1.92;;
46116;SDS011;32591;48.102;11.772;2024-02-26T01:43:54;5.20;;;2.83;;
46116;SDS011;32591;48.102;11.772;2024-02-26T01:46:22;4.05;;;2.35;;
46116;SDS011;32591;48.102;11.772;2024-02-26T01:48:50;3.67;;;2.00;;
46116;SDS011;32591;48.102;11.772;2024-02-26T01:51:19;3.38;;;2.17;;
46116;SDS011;32591;48.102;11.772;2024-02-26T01:53:49;4.57;;;2.00;;
46116;SDS011;32591;48.102;11.772;2024-02-26T01:56:17;4.00;;;2.42;;
46116;SDS011;32591;48.102;11.772;2024-02-26T01:58:47;3.45;;;1.85;;
46116;SDS011;32591;48.102;11.772;2024-02-26T02:01:16;3.40;;;2.17;;
46116;SDS011;32591;48.102;11.772;2024-02-26T02:03:49;3.40;;;2.15;;
46116;SDS011;32591;48.102;11.772;2024-02-26T02:06:17;4.90;;;2.65;;
46116;SDS011;32591;48.102;11.772;2024-02-26T02:08:46;4.55;;;2.38;;
46116;SDS011;32591;48.102;11.772;2024-02-26T02:11:16;3.97;;;1.95;;
46116;SDS011;32591;48.102;11.772;2024-02-26T02:13:45;4.70;;;2.33;;
46116;SDS011;32591;48.102;11.772;2024-02-26T02:16:13;5.68;;;2.00;;
46116;SDS011;32591;48.102;11.772;2024-02-26T02:18:41;3.50;;;2.47;;
46116;SDS011;32591;48.102;11.772;2024-02-26T02:21:11;3.97;;;2.08;;
46116;SDS011;32591;48.102;11.772;2024-02-26T02:23:39;4.57;;;1.80;;
46116;SDS011;32591;48.102;11.772;2024-02-26T02:26:13;4.05;;;2.30;;
46116;SDS011;32591;48.102;11.772;2024-02-26T02:28:42;4.85;;;2.10;;
46116;SDS011;32591;48.102;11.772;2024-02-26T02:31:10;3.80;;;2.00;;
46116;SDS011;32591;48.102;11.772;2024-02-26T02:33:38;5.18;;;2.10;;
46116;SDS011;32591;48.102;11.772;2024-02-26T02:36:07;4.03;;;2.00;;
46116;SDS011;32591;48.102;11.772;2024-02-26T02:38:38;4.13;;;2.45;;
46116;SDS011;32591;48.102;11.772;2024-02-26T02:41:17;4.28;;;2.55;;
46116;SDS011;32591;48.102;11.772;2024-02-26T02:43:45;4.55;;;2.03;;
46116;SDS011;32591;48.102;11.772;2024-02-26T02:46:13;3.92;;;1.80;;
46116;SDS011;32591;48.102;11.772;2024-02-26T02:48:42;3.33;;;1.80;;
46116;SDS011;32591;48.102;11.772;2024-02-26T02:51:11;3.40;;;1.70;;
46116;SDS011;32591;48.102;11.772;2024-02-26T02:53:40;2.80;;;1.60;;
46116;SDS011;32591;48.102;11.772;2024-02-26T02:56:08;7.10;;;2.10;;
46116;SDS011;32591;48.102;11.772;2024-02-26T02:58:37;3.80;;;2.17;;
46116;SDS011;32591;48.102;11.772;2024-02-26T03:01:05;4.15;;;2.28;;
46116;SDS011;32591;48.102;11.772;2024-02-26T03:03:33;3.08;;;1.70;;
46116;SDS011;32591;48.102;11.772;2024-02-26T03:06:03;2.88;;;1.75;;
46116;SDS011;32591;48.102;11.772;2024-02-26T03:08:31;3.15;;;2.00;;
46116;SDS011;32591;48.102;11.772;2024-02-26T03:11:04;2.67;;;1.65;;
46116;SDS011;32591;48.102;11.772;2024-02-26T03:13:32;4.13;;;1.67;;
46116;SDS011;32591;48.102;11.772;2024-02-26T03:16:03;3.53;;;1.90;;
46116;SDS011;32591;48.102;11.772;2024-02-26T03:18:33;3.00;;;1.83;;
46116;SDS011;32591;48.102;11.772;2024-02-26T03:21:01;4.28;;;2.42;;
46116;SDS011;32591;48.102;11.772;2024-02-26T03:23:30;4.60;;;2.38;;
46116;SDS011;32591;48.102;11.772;2024-02-26T03:25:58;3.63;;;1.90;;
46116;SDS011;32591;48.102;11.772;2024-02-26T03:28:28;3.15;;;1.88;;
46116;SDS011;32591;48.102;11.772;2024-02-26T03:30:57;3.40;;;1.65;;
46116;SDS011;32591;48.102;11.772;2024-02-26T03:33:25;3.83;;;2.10;;
46116;SDS011;32591;48.102;11.772;2024-02-26T03:35:53;3.05;;;1.92;;
46116;SDS011;32591;48.102;11.772;2024-02-26T03:38:21;5.13;;;1.83;;
46116;SDS011;32591;48.102;11.772;2024-02-26T03:40:49;2.40;;;1.60;;
46116;SDS011;32591;48.102;11.772;2024-02-26T03:43:17;3.55;;;2.03;;
46116;SDS011;32591;48.102;11.772;2024-02-26T03:45:47;2.85;;;1.42;;
46116;SDS011;32591;48.102;11.772;2024-02-26T03:48:15;2.95;;;1.40;;
46116;SDS011;32591;48.102;11.772;2024-02-26T03:50:43;3.63;;;1.17;;
46116;SDS011;32591;48.102;11.772;2024-02-26T03:53:11;2.35;;;1.63;;
46116;SDS011;32591;48.102;11.772;2024-02-26T03:55:40;2.80;;;1.50;;
46116;SDS011;32591;48.102;11.772;2024-02-26T03:58:09;2.83;;;1.67;;
46116;SDS011;32591;48.102;11.772;2024-02-26T04:00:39;2.58;;;1.50;;
46116;SDS011;32591;48.102;11.772;2024-02-26T04:03:09;1.70;;;1.35;;
46116;SDS011;32591;48.102;11.772;2024-02-26T04:05:37;3.53;;;1.73;;
46116;SDS011;32591;48.102;11.772;2024-02-26T04:08:05;2.70;;;1.33;;
46116;SDS011;32591;48.102;11.772;2024-02-26T04:10:34;6.63;;;1.65;;
46116;SDS011;32591;48.102;11.772;2024-02-26T04:13:04;2.58;;;1.73;;
46116;SDS011;32591;48.102;11.772;2024-02-26T04:15:34;3.53;;;1.75;;
46116;SDS011;32591;48.102;11.772;2024-02-26T04:18:02;4.40;;;1.75;;
46116;SDS011;32591;48.102;11.772;2024-02-26T04:20:32;3.55;;;2.00;;
46116;SDS011;32591;48.102;11.772;2024-02-26T04:23:00;2.58;;;1.35;;
46116;SDS011;32591;48.102;11.772;2024-02-26T04:25:30;3.00;;;1.83;;
46116;SDS011;32591;48.102;11.772;2024-02-26T04:27:58;2.90;;;1.33;;
46116;SDS011;32591;48.102;11.772;2024-02-26T04:30:26;2.50;;;1.63;;
46116;SDS011;32591;48.102;11.772;2024-02-26T04:32:54;2.17;;;1.40;;
46116;SDS011;32591;48.102;11.772;2024-02-26T04:35:22;3.38;;;1.50;;
46116;SDS011;32591;48.102;11.772;2024-02-26T04:37:52;3.90;;;1.85;;
46116;SDS011;32591;48.102;11.772;2024-02-26T04:40:20;3.28;;;2.05;;
46116;SDS011;32591;48.102;11.772;2024-02-26T04:42:50;2.63;;;1.48;;
46116;SDS011;32591;48.102;11.772;2024-02-26T04:45:18;2.47;;;1.42;;
46116;SDS011;32591;48.102;11.772;2024-02-26T04:47:46;2.42;;;1.55;;
46116;SDS011;32591;48.102;11.772;2024-02-26T04:50:14;3.67;;;1.50;;
46116;SDS011;32591;48.102;11.772;2024-02-26T04:52:42;2.90;;;1.60;;
46116;SDS011;32591;48.102;11.772;2024-02-26T04:55:12;3.05;;;1.30;;
46116;SDS011;32591;48.102;11.772;2024-02-26T04:57:40;2.65;;;1.25;;
46116;SDS011;32591;48.102;11.772;2024-02-26T05:00:09;3.33;;;1.75;;
46116;SDS011;32591;48.102;11.772;2024-02-26T05:02:39;3.50;;;1.95;;
46116;SDS011;32591;48.102;11.772;2024-02-26T05:05:07;2.28;;;1.67;;
46116;SDS011;32591;48.102;11.772;2024-02-26T05:07:39;3.60;;;1.50;;
46116;SDS011;32591;48.102;11.772;2024-02-26T05:10:08;2.25;;;1.52;;
46116;SDS011;32591;48.102;11.772;2024-02-26T05:12:38;2.47;;;1.15;;
46116;SDS011;32591;48.102;11.772;2024-02-26T05:15:09;2.55;;;1.35;;
46116;SDS011;32591;48.102;11.772;2024-02-26T05:17:37;2.50;;;1.60;;
46116;SDS011;32591;48.102;11.772;2024-02-26T05:20:06;3.17;;;1.40;;
46116;SDS011;32591;48.102;11.772;2024-02-26T05:22:35;2.35;;;1.50;;
46116;SDS011;32591;48.102;11.772;2024-02-26T05:25:04;4.47;;;2.00;;
46116;SDS011;32591;48.102;11.772;2024-02-26T05:27:36;2.75;;;1.40;;
46116;SDS011;32591;48.102;11.772;2024-02-26T05:30:06;2.70;;;1.50;;
46116;SDS011;32591;48.102;11.772;2024-02-26T05:32:35;2.42;;;1.73;;
46116;SDS011;32591;48.102;11.772;2024-02-26T05:35:03;2.45;;;1.48;;
46116;SDS011;32591;48.102;11.772;2024-02-26T05:37:33;2.67;;;1.27;;
46116;SDS011;32591;48.102;11.772;2024-02-26T05:40:01;3.08;;;1.40;;
46116;SDS011;32591;48.102;11.772;2024-02-26T05:42:30;4.18;;;1.45;;
46116;SDS011;32591;48.102;11.772;2024-02-26T05:45:01;3.05;;;1.95;;
46116;SDS011;32591;48.102;11.772;2024-02-26T05:47:32;5.00;;;1.90;;
46116;SDS011;32591;48.102;11.772;2024-02-26T05:50:01;2.67;;;1.60;;
46116;SDS011;32591;48.102;11.772;2024-02-26T05:52:29;2.45;;;1.45;;
46116;SDS011;32591;48.102;11.772;2024-02-26T05:54:58;2.40;;;1.48;;
46116;SDS011;32591;48.102;11.772;2024-02-26T05:57:26;2.72;;;1.90;;
46116;SDS011;32591;48.102;11.772;2024-02-26T05:59:54;3.40;;;1.80;;
46116;SDS011;32591;48.102;11.772;2024-02-26T06:02:23;4.47;;;2.10;;
46116;SDS011;32591;48.102;11.772;2024-02-26T06:04:51;3.45;;;1.83;;
46116;SDS011;32591;48.102;11.772;2024-02-26T06:07:19;6.00;;;2.17;;
46116;SDS011;32591;48.102;11.772;2024-02-26T06:09:47;4.75;;;2.35;;
46116;SDS011;32591;48.102;11.772;2024-02-26T06:12:15;3.85;;;2.30;;
46116;SDS011;32591;48.102;11.772;2024-02-26T06:14:44;5.50;;;2.38;;
46116;SDS011;32591;48.102;11.772;2024-02-26T06:17:13;4.20;;;2.30;;
46116;SDS011;32591;48.102;11.772;2024-02-26T06:19:43;3.63;;;2.05;;
46116;SDS011;32591;48.102;11.772;2024-02-26T06:22:11;4.47;;;2.17;;
46116;SDS011;32591;48.102;11.772;2024-02-26T06:24:39;4.78;;;1.90;;
46116;SDS011;32591;48.102;11.772;2024-02-26T06:27:07;3.55;;;1.60;;
46116;SDS011;32591;48.102;11.772;2024-02-26T06:29:35;2.80;;;1.65;;
46116;SDS011;32591;48.102;11.772;2024-02-26T06:32:04;2.78;;;1.48;;
46116;SDS011;32591;48.102;11.772;2024-02-26T06:34:32;2.85;;;1.77;;
46116;SDS011;32591;48.102;11.772;2024-02-26T06:37:02;3.13;;;1.75;;
46116;SDS011;32591;48.102;11.772;2024-02-26T06:39:31;3.47;;;1.80;;
46116;SDS011;32591;48.102;11.772;2024-02-26T06:41:59;3.15;;;1.60;;
46116;SDS011;32591;48.102;11.772;2024-02-26T06:44:28;5.50;;;1.90;;
46116;SDS011;32591;48.102;11.772;2024-02-26T06:46:58;2.55;;;1.58;;
46116;SDS011;32591;48.102;11.772;2024-02-26T06:49:26;4.40;;;1.70;;
46116;SDS011;32591;48.102;11.772;2024-02-26T06:51:55;7.60;;;1.80;;
46116;SDS011;32591;48.102;11.772;2024-02-26T06:54:25;5.55;;;1.38;;
46116;SDS011;32591;48.102;11.772;2024-02-26T06:56:53;4.75;;;2.00;;
46116;SDS011;32591;48.102;11.772;2024-02-26T06:59:21;3.63;;;2.20;;
46116;SDS011;32591;48.102;11.772;2024-02-26T07:01:50;4.20;;;1.95;;
46116;SDS011;32591;48.102;11.772;2024-02-26T07:04:18;2.42;;;1.52;;
46116;SDS011;32591;48.102;11.772;2024-02-26T07:06:46;4.22;;;1.50;;
46116;SDS011;32591;48.102;11.772;2024-02-26T07:09:15;2.42;;;1.35;;
46116;SDS011;32591;48.102;11.772;2024-02-26T07:11:44;2.90;;;1.55;;
46116;SDS011;32591;48.102;11.772;2024-02-26T07:14:12;4.35;;;1.80;;
46116;SDS011;32591;48.102;11.772;2024-02-26T07:16:40;3.67;;;2.00;;
46116;SDS011;32591;48.102;11.772;2024-02-26T07:19:09;3.15;;;1.88;;
46116;SDS011;32591;48.102;11.772;2024-02-26T07:21:37;2.65;;;1.60;;
46116;SDS011;32591;48.102;11.772;2024-02-26T07:24:05;3.28;;;1.90;;
46116;SDS011;32591;48.102;11.772;2024-02-26T07:26:34;3.33;;;1.70;;
46116;SDS011;32591;48.102;11.772;2024-02-26T07:29:03;5.78;;;3.35;;
46116;SDS011;32591;48.102;11.772;2024-02-26T07:31:31;10.07;;;5.03;;
46116;SDS011;32591;48.102;11.772;2024-02-26T07:33:59;8.10;;;3.92;;
46116;SDS011;32591;48.102;11.772;2024-02-26T07:36:28;5.65;;;2.42;;
46116;SDS011;32591;48.102;11.772;2024-02-26T07:38:56;4.18;;;3.03;;
46116;SDS011;32591;48.102;11.772;2024-02-26T07:41:24;4.40;;;1.98;;
46116;SDS011;32591;48.102;11.772;2024-02-26T07:43:52;4.95;;;2.35;;
46116;SDS011;32591;48.102;11.772;2024-02-26T07:46:22;9.82;;;4.60;;
46116;SDS011;32591;48.102;11.772;2024-02-26T07:48:50;16.02;;;7.38;;
46116;SDS011;32591;48.102;11.772;2024-02-26T07:51:18;15.77;;;7.43;;
46116;SDS011;32591;48.102;11.772;2024-02-26T07:53:46;16.63;;;6.53;;
46116;SDS011;32591;48.102;11.772;2024-02-26T07:56:14;16.88;;;6.38;;
46116;SDS011;32591;48.102;11.772;2024-02-26T07:58:43;13.95;;;5.97;;
46116;SDS011;32591;48.102;11.772;2024-02-26T08:01:12;11.50;;;5.13;;
46116;SDS011;32591;48.102;11.772;2024-02-26T08:03:42;11.88;;;5.45;;
46116;SDS011;32591;48.102;11.772;2024-02-26T08:06:13;9.23;;;3.90;;
46116;SDS011;32591;48.102;11.772;2024-02-26T08:08:41;10.25;;;5.10;;
46116;SDS011;32591;48.102;11.772;2024-02-26T08:11:10;9.30;;;5.60;;
46116;SDS011;32591;48.102;11.772;2024-02-26T08:13:38;11.75;;;6.03;;
46116;SDS011;32591;48.102;11.772;2024-02-26T08:16:06;10.57;;;5.25;;
46116;SDS011;32591;48.102;11.772;2024-02-26T08:18:35;9.88;;;4.47;;
46116;SDS011;32591;48.102;11.772;2024-02-26T08:21:05;5.80;;;3.30;;
46116;SDS011;32591;48.102;11.772;2024-02-26T08:23:35;6.72;;;3.85;;
46116;SDS011;32591;48.102;11.772;2024-02-26T08:26:03;6.93;;;3.25;;
46116;SDS011;32591;48.102;11.772;2024-02-26T08:28:33;6.78;;;3.90;;
46116;SDS011;32591;48.102;11.772;2024-02-26T08:31:01;6.30;;;3.20;;
46116;SDS011;32591;48.102;11.772;2024-02-26T08:33:29;4.22;;;2.53;;
46116;SDS011;32591;48.102;11.772;2024-02-26T08:35:58;5.65;;;3.60;;
46116;SDS011;32591;48.102;11.772;2024-02-26T08:38:27;7.53;;;5.10;;
46116;SDS011;32591;48.102;11.772;2024-02-26T08:40:56;4.80;;;3.05;;
46116;SDS011;32591;48.102;11.772;2024-02-26T08:43:24;3.40;;;3.00;;
46116;SDS011;32591;48.102;11.772;2024-02-26T08:45:52;3.30;;;2.15;;
46116;SDS011;32591;48.102;11.772;2024-02-26T08:48:20;2.28;;;1.40;;
46116;SDS011;32591;48.102;11.772;2024-02-26T08:50:49;3.10;;;1.95;;
46116;SDS011;32591;48.102;11.772;2024-02-26T08:53:17;6.53;;;2.13;;
46116;SDS011;32591;48.102;11.772;2024-02-26T08:55:58;3.20;;;1.88;;
46116;SDS011;32591;48.102;11.772;2024-02-26T08:58:26;3.38;;;1.90;;
46116;SDS011;32591;48.102;11.772;2024-02-26T09:00:55;3.78;;;1.90;;
46116;SDS011;32591;48.102;11.772;2024-02-26T09:03:23;3.92;;;1.85;;
46116;SDS011;32591;48.102;11.772;2024-02-26T09:05:52;2.13;;;1.60;;
46116;SDS011;32591;48.102;11.772;2024-02-26T09:08:20;3.28;;;1.80;;
46116;SDS011;32591;48.102;11.772;2024-02-26T09:10:49;2.45;;;1.50;;
46116;SDS011;32591;48.102;11.772;2024-02-26T09:13:19;4.60;;;1.42;;
46116;SDS011;32591;48.102;11.772;2024-02-26T09:15:47;2.78;;;1.52;;
46116;SDS011;32591;48.102;11.772;2024-02-26T09:18:15;3.60;;;1.92;;
46116;SDS011;32591;48.102;11.772;2024-02-26T09:20:43;5.18;;;1.83;;
46116;SDS011;32591;48.102;11.772;2024-02-26T09:23:12;1.92;;;1.30;;
46116;SDS011;32591;48.102;11.772;2024-02-26T09:25:40;1.83;;;1.35;;
46116;SDS011;32591;48.102;11.772;2024-02-26T09:28:09;1.98;;;1.17;;
46116;SDS011;32591;48.102;11.772;2024-02-26T09:30:38;3.55;;;1.70;;
46116;SDS011;32591;48.102;11.772;2024-02-26T09:33:06;2.50;;;1.20;;
46116;SDS011;32591;48.102;11.772;2024-02-26T09:35:34;2.03;;;1.35;;
46116;SDS011;32591;48.102;11.772;2024-02-26T09:38:02;2.58;;;1.40;;
46116;SDS011;32591;48.102;11.772;2024-02-26T09:40:33;2.97;;;1.48;;
46116;SDS011;32591;48.102;11.772;2024-02-26T09:43:01;2.00;;;1.30;;
46116;SDS011;32591;48.102;11.772;2024-02-26T09:45:32;2.63;;;1.80;;
46116;SDS011;32591;48.102;11.772;2024-02-26T09:48:03;2.88;;;1.27;;
46116;SDS011;32591;48.102;11.772;2024-02-26T09:50:35;2.50;;;1.45;;
46116;SDS011;32591;48.102;11.772;2024-02-26T09:53:04;2.05;;;1.33;;
46116;SDS011;32591;48.102;11.772;2024-02-26T09:55:36;2.35;;;1.27;;
46116;SDS011;32591;48.102;11.772;2024-02-26T09:58:04;2.08;;;1.30;;
46116;SDS011;32591;48.102;11.772;2024-02-26T10:00:34;2.28;;;1.33;;
46116;SDS011;32591;48.102;11.772;2024-02-26T10:03:07;5.00;;;2.63;;
46116;SDS011;32591;48.102;11.772;2024-02-26T10:05:42;2.53;;;1.48;;
46116;SDS011;32591;48.102;11.772;2024-02-26T10:08:12;3.10;;;1.92;;
46116;SDS011;32591;48.102;11.772;2024-02-26T10:10:41;4.97;;;2.65;;
46116;SDS011;32591;48.102;11.772;2024-02-26T10:13:11;13.65;;;5.18;;
46116;SDS011;32591;48.102;11.772;2024-02-26T10:15:39;6.28;;;2.85;;
46116;SDS011;32591;48.102;11.772;2024-02-26T10:18:08;5.55;;;3.22;;
46116;SDS011;32591;48.102;11.772;2024-02-26T10:20:37;4.70;;;1.95;;
46116;SDS011;32591;48.102;11.772;2024-02-26T10:23:05;4.32;;;1.50;;
46116;SDS011;32591;48.102;11.772;2024-02-26T10:25:33;4.47;;;1.23;;
46116;SDS011;32591;48.102;11.772;2024-02-26T10:28:01;1.73;;;1.13;;
46116;SDS011;32591;48.102;11.772;2024-02-26T10:30:30;1.65;;;1.20;;
46116;SDS011;32591;48.102;11.772;2024-02-26T10:32:58;2.33;;;1.60;;
46116;SDS011;32591;48.102;11.772;2024-02-26T10:35:28;1.98;;;1.20;;
46116;SDS011;32591;48.102;11.772;2024-02-26T10:38:00;2.63;;;1.35;;
46116;SDS011;32591;48.102;11.772;2024-02-26T10:40:28;2.22;;;1.30;;
46116;SDS011;32591;48.102;11.772;2024-02-26T10:42:57;2.60;;;1.30;;
46116;SDS011;32591;48.102;11.772;2024-02-26T10:45:26;1.95;;;1.27;;
46116;SDS011;32591;48.102;11.772;2024-02-26T10:47:54;1.13;;;1.00;;
46116;SDS011;32591;48.102;11.772;2024-02-26T10:50:22;2.42;;;1.40;;
46116;SDS011;32591;48.102;11.772;2024-02-26T10:52:52;2.97;;;1.35;;
46116;SDS011;32591;48.102;11.772;2024-02-26T10:55:22;2.08;;;1.40;;
46116;SDS011;32591;48.102;11.772;2024-02-26T10:57:52;2.92;;;1.63;;
46116;SDS011;32591;48.102;11.772;2024-02-26T11:00:21;2.08;;;1.30;;
46116;SDS011;32591;48.102;11.772;2024-02-26T11:02:49;2.55;;;1.52;;
46116;SDS011;32591;48.102;11.772;2024-02-26T11:05:20;2.28;;;1.65;;
46116;SDS011;32591;48.102;11.772;2024-02-26T11:07:48;2.28;;;1.40;;
46116;SDS011;32591;48.102;11.772;2024-02-26T11:10:20;2.42;;;1.20;;
46116;SDS011;32591;48.102;11.772;2024-02-26T11:12:51;2.00;;;1.20;;
46116;SDS011;32591;48.102;11.772;2024-02-26T11:15:21;2.58;;;1.35;;
46116;SDS011;32591;48.102;11.772;2024-02-26T11:17:51;2.40;;;1.40;;
46116;SDS011;32591;48.102;11.772;2024-02-26T11:20:20;1.83;;;1.30;;
46116;SDS011;32591;48.102;11.772;2024-02-26T11:22:48;3.80;;;1.42;;
46116;SDS011;32591;48.102;11.772;2024-02-26T11:25:18;2.42;;;1.35;;
46116;SDS011;32591;48.102;11.772;2024-02-26T11:27:47;1.75;;;1.02;;
46116;SDS011;32591;48.102;11.772;2024-02-26T11:30:23;3.85;;;1.20;;
46116;SDS011;32591;48.102;11.772;2024-02-26T11:32:53;1.65;;;1.25;;
46116;SDS011;32591;48.102;11.772;2024-02-26T11:35:22;1.20;;;1.00;;
46116;SDS011;32591;48.102;11.772;2024-02-26T11:37:52;1.73;;;1.00;;
46116;SDS011;32591;48.102;11.772;2024-02-26T11:40:24;1.27;;;0.90;;
46116;SDS011;32591;48.102;11.772;2024-02-26T11:42:53;1.40;;;0.70;;
46116;SDS011;32591;48.102;11.772;2024-02-26T11:48:22;2.10;;;0.98;;
46116;SDS011;32591;48.102;11.772;2024-02-26T11:50:52;1.15;;;0.80;;
46116;SDS011;32591;48.102;11.772;2024-02-26T11:53:23;1.02;;;0.90;;
46116;SDS011;32591;48.102;11.772;2024-02-26T11:58:57;2.15;;;1.00;;
46116;SDS011;32591;48.102;11.772;2024-02-26T12:01:41;1.80;;;0.70;;
46116;SDS011;32591;48.102;11.772;2024-02-26T12:04:12;1.42;;;0.85;;
46116;SDS011;32591;48.102;11.772;2024-02-26T12:06:47;2.08;;;1.08;;
46116;SDS011;32591;48.102;11.772;2024-02-26T12:09:31;1.67;;;0.90;;
46116;SDS011;32591;48.102;11.772;2024-02-26T12:12:03;1.63;;;1.00;;
46116;SDS011;32591;48.102;11.772;2024-02-26T12:14:34;3.30;;;1.05;;
46116;SDS011;32591;48.102;11.772;2024-02-26T12:17:05;1.75;;;0.90;;
46116;SDS011;32591;48.102;11.772;2024-02-26T12:19:35;1.23;;;0.90;;
46116;SDS011;32591;48.102;11.772;2024-02-26T12:22:09;2.10;;;1.02;;
46116;SDS011;32591;48.102;11.772;2024-02-26T12:24:40;1.15;;;0.80;;
46116;SDS011;32591;48.102;11.772;2024-02-26T12:27:10;1.20;;;0.68;;
46116;SDS011;32591;48.102;11.772;2024-02-26T12:29:39;2.03;;;0.70;;
46116;SDS011;32591;48.102;11.772;2024-02-26T12:32:07;1.38;;;0.77;;
46116;SDS011;32591;48.102;11.772;2024-02-26T12:34:37;1.20;;;0.65;;
46116;SDS011;32591;48.102;11.772;2024-02-26T12:37:05;0.45;;;0.45;;
46116;SDS011;32591;48.102;11.772;2024-02-26T12:39:35;0.75;;;0.52;;
46116;SDS011;32591;48.102;11.772;2024-02-26T12:42:04;0.85;;;0.50;;
46116;SDS011;32591;48.102;11.772;2024-02-26T12:44:35;2.88;;;0.68;;
46116;SDS011;32591;48.102;11.772;2024-02-26T12:47:03;0.70;;;0.50;;
46116;SDS011;32591;48.102;11.772;2024-02-26T12:49:32;0.68;;;0.55;;
46116;SDS011;32591;48.102;11.772;2024-02-26T12:52:01;1.00;;;0.50;;
46116;SDS011;32591;48.102;11.772;2024-02-26T12:54:30;2.25;;;0.60;;
46116;SDS011;32591;48.102;11.772;2024-02-26T12:57:00;0.63;;;0.40;;
46116;SDS011;32591;48.102;11.772;2024-02-26T12:59:29;2.20;;;0.50;;
46116;SDS011;32591;48.102;11.772;2024-02-26T13:01:59;1.67;;;0.50;;
46116;SDS011;32591;48.102;11.772;2024-02-26T13:04:32;1.05;;;0.50;;
46116;SDS011;32591;48.102;11.772;2024-02-26T13:07:02;0.75;;;0.70;;
46116;SDS011;32591;48.102;11.772;2024-02-26T13:09:33;1.10;;;0.80;;
46116;SDS011;32591;48.102;11.772;2024-02-26T13:12:03;3.63;;;0.82;;
46116;SDS011;32591;48.102;11.772;2024-02-26T13:14:33;1.67;;;0.93;;
46116;SDS011;32591;48.102;11.772;2024-02-26T13:17:03;3.33;;;1.30;;
46116;SDS011;32591;48.102;11.772;2024-02-26T13:19:32;4.95;;;1.35;;
46116;SDS011;32591;48.102;11.772;2024-02-26T13:22:04;4.75;;;1.98;;
46116;SDS011;32591;48.102;11.772;2024-02-26T13:24:34;3.92;;;2.08;;
46116;SDS011;32591;48.102;11.772;2024-02-26T13:27:03;4.60;;;2.55;;
46116;SDS011;32591;48.102;11.772;2024-02-26T13:29:33;5.38;;;2.50;;
46116;SDS011;32591;48.102;11.772;2024-02-26T13:32:01;4.05;;;2.47;;
46116;SDS011;32591;48.102;11.772;2024-02-26T13:34:33;4.38;;;2.92;;
46116;SDS011;32591;48.102;11.772;2024-02-26T13:37:03;3.70;;;2.58;;
46116;SDS011;32591;48.102;11.772;2024-02-26T13:39:32;3.35;;;2.00;;
46116;SDS011;32591;48.102;11.772;2024-02-26T13:42:02;3.72;;;1.85;;
46116;SDS011;32591;48.102;11.772;2024-02-26T13:44:31;4.03;;;2.00;;
46116;SDS011;32591;48.102;11.772;2024-02-26T13:47:03;6.18;;;2.85;;
46116;SDS011;32591;48.102;11.772;2024-02-26T13:49:32;5.35;;;2.40;;
46116;SDS011;32591;48.102;11.772;2024-02-26T13:52:00;5.55;;;3.05;;
46116;SDS011;32591;48.102;11.772;2024-02-26T13:54:29;5.47;;;2.60;;
46116;SDS011;32591;48.102;11.772;2024-02-26T13:56:57;5.30;;;2.95;;
46116;SDS011;32591;48.102;11.772;2024-02-26T13:59:25;5.00;;;2.70;;
46116;SDS011;32591;48.102;11.772;2024-02-26T14:01:55;7.10;;;3.00;;
46116;SDS011;32591;48.102;11.772;2024-02-26T14:04:25;5.18;;;2.60;;
46116;SDS011;32591;48.102;11.772;2024-02-26T14:06:53;5.55;;;4.00;;
46116;SDS011;32591;48.102;11.772;2024-02-26T14:09:22;5.78;;;3.17;;
46116;SDS011;32591;48.102;11.772;2024-02-26T14:12:01;4.45;;;2.40;;
46116;SDS011;32591;48.102;11.772;2024-02-26T14:14:29;4.57;;;3.17;;
46116;SDS011;32591;48.102;11.772;2024-02-26T14:17:01;3.53;;;2.28;;
46116;SDS011;32591;48.102;11.772;2024-02-26T14:19:31;3.38;;;2.60;;
46116;SDS011;32591;48.102;11.772;2024-02-26T14:21:59;5.45;;;2.17;;
46116;SDS011;32591;48.102;11.772;2024-02-26T14:24:27;5.35;;;2.50;;
46116;SDS011;32591;48.102;11.772;2024-02-26T14:26:56;5.50;;;2.67;;
46116;SDS011;32591;48.102;11.772;2024-02-26T14:29:24;3.92;;;2.72;;
46116;SDS011;32591;48.102;11.772;2024-02-26T14:31:52;3.63;;;2.22;;
46116;SDS011;32591;48.102;11.772;2024-02-26T14:34:23;4.40;;;2.50;;
46116;SDS011;32591;48.102;11.772;2024-02-26T14:36:53;4.05;;;2.33;;
46116;SDS011;32591;48.102;11.772;2024-02-26T14:39:22;5.88;;;2.20;;
46116;SDS011;32591;48.102;11.772;2024-02-26T14:41:50;2.90;;;1.90;;
46116;SDS011;32591;48.102;11.772;2024-02-26T14:44:22;4.05;;;2.20;;
46116;SDS011;32591;48.102;11.772;2024-02-26T14:46:50;5.25;;;2.80;;
46116;SDS011;32591;48.102;11.772;2024-02-26T14:49:19;4.60;;;2.70;;
46116;SDS011;32591;48.102;11.772;2024-02-26T14:51:47;3.15;;;2.00;;